createdAt,value
2017-10-27T00:02:04.619Z,19.80
2017-10-27T00:04:34.737Z,19.80
2017-10-27T00:07:04.142Z,19.80
2017-10-27T00:09:34.102Z,19.70
2017-10-27T00:12:03.240Z,19.70
2017-10-27T00:14:32.365Z,19.70
2017-10-27T00:17:01.138Z,19.60
2017-10-27T00:19:30.006Z,19.60
2017-10-27T00:21:59.129Z,19.60
2017-10-27T00:24:28.260Z,19.60
2017-10-27T00:26:57.989Z,19.50
2017-10-27T00:29:27.169Z,19.50
2017-10-27T00:31:56.278Z,19.40
2017-10-27T00:34:25.218Z,19.50
2017-10-27T00:36:54.627Z,19.50
2017-10-27T00:39:23.959Z,19.40
2017-10-27T00:41:52.867Z,19.40
2017-10-27T00:44:22.473Z,19.40
2017-10-27T00:46:51.827Z,19.40
2017-10-27T00:49:20.928Z,19.40
2017-10-27T00:51:49.930Z,19.40
2017-10-27T00:54:18.697Z,19.40
2017-10-27T00:56:47.826Z,19.40
2017-10-27T00:59:17.896Z,19.40
2017-10-27T01:01:46.929Z,19.30
2017-10-27T01:04:15.901Z,19.30
2017-10-27T01:06:44.793Z,19.30
2017-10-27T01:09:13.686Z,19.40
2017-10-27T01:11:42.368Z,19.40
2017-10-27T01:14:11.260Z,19.30
2017-10-27T01:16:40.771Z,19.30
2017-10-27T01:19:09.654Z,19.30
2017-10-27T01:21:38.548Z,19.40
2017-10-27T01:24:07.444Z,19.30
2017-10-27T01:26:37.761Z,19.30
2017-10-27T01:29:06.656Z,19.30
2017-10-27T01:31:35.546Z,19.30
2017-10-27T01:34:04.434Z,19.30
2017-10-27T01:36:33.326Z,19.30
2017-10-27T01:39:02.224Z,19.30
2017-10-27T01:41:31.937Z,19.30
2017-10-27T01:44:00.825Z,19.30
2017-10-27T01:46:29.711Z,19.30
2017-10-27T01:48:58.601Z,19.30
2017-10-27T01:51:27.491Z,19.30
2017-10-27T01:53:56.382Z,19.20
2017-10-27T01:56:25.275Z,19.20
2017-10-27T01:58:54.166Z,19.20
2017-10-27T02:01:22.953Z,19.30
2017-10-27T02:03:51.639Z,19.20
2017-10-27T02:06:20.529Z,19.20
2017-10-27T02:08:49.426Z,19.10
2017-10-27T02:11:18.312Z,19.10
2017-10-27T02:13:47.204Z,19.20
2017-10-27T02:16:16.093Z,19.10
2017-10-27T02:18:45.805Z,19.00
2017-10-27T02:21:14.696Z,19.00
2017-10-27T02:23:43.585Z,19.10
2017-10-27T02:26:12.489Z,19.10
2017-10-27T02:28:41.371Z,19.10
2017-10-27T02:31:10.262Z,19.10
2017-10-27T02:33:39.150Z,19.10
2017-10-27T02:36:08.146Z,19.10
2017-10-27T02:38:36.932Z,19.10
2017-10-27T02:41:05.721Z,19.10
2017-10-27T02:43:34.516Z,19.00
2017-10-27T02:46:03.299Z,19.10
2017-10-27T02:48:31.986Z,19.00
2017-10-27T02:51:00.773Z,19.00
2017-10-27T02:53:30.282Z,19.10
2017-10-27T02:55:59.028Z,19.00
2017-10-27T02:58:27.702Z,19.00
2017-10-27T03:00:57.527Z,19.00
2017-10-27T03:03:26.267Z,19.00
2017-10-27T03:05:55.348Z,19.10
2017-10-27T03:08:25.235Z,19.10
2017-10-27T03:10:54.138Z,19.10
2017-10-27T03:13:23.354Z,19.10
2017-10-27T03:15:52.142Z,19.20
2017-10-27T03:18:21.239Z,19.20
2017-10-27T03:20:50.131Z,19.20
2017-10-27T03:23:19.018Z,19.20
2017-10-27T03:25:47.909Z,19.20
2017-10-27T03:28:17.020Z,19.20
2017-10-27T03:30:45.898Z,19.20
2017-10-27T03:33:14.582Z,19.20
2017-10-27T03:35:43.281Z,19.10
2017-10-27T03:38:11.957Z,19.10
2017-10-27T03:40:40.644Z,19.10
2017-10-27T03:43:09.329Z,19.00
2017-10-27T03:45:38.014Z,19.00
2017-10-27T03:48:06.701Z,18.90
2017-10-27T03:50:35.593Z,18.90
2017-10-27T03:53:04.484Z,18.90
2017-10-27T03:55:33.573Z,18.90
2017-10-27T03:58:03.191Z,18.90
2017-10-27T04:00:32.436Z,18.90
2017-10-27T04:03:01.380Z,18.90
2017-10-27T04:05:30.328Z,18.90
2017-10-27T04:07:59.575Z,18.90
2017-10-27T04:10:29.282Z,19.00
2017-10-27T04:12:59.071Z,19.00
2017-10-27T04:15:28.094Z,18.90
2017-10-27T04:17:57.045Z,18.90
2017-10-27T04:20:26.691Z,18.90
2017-10-27T04:22:55.581Z,18.90
2017-10-27T04:25:24.379Z,18.90
2017-10-27T04:27:53.573Z,18.80
2017-10-27T04:30:22.690Z,18.80
2017-10-27T04:32:51.496Z,18.80
2017-10-27T04:35:20.445Z,18.70
2017-10-27T04:37:50.068Z,18.80
2017-10-27T04:40:19.670Z,18.80
2017-10-27T04:42:48.675Z,18.80
2017-10-27T04:45:17.828Z,18.80
2017-10-27T04:47:46.768Z,18.80
2017-10-27T04:50:16.642Z,18.80
2017-10-27T04:52:45.687Z,18.80
2017-10-27T04:55:15.892Z,18.80
2017-10-27T04:57:45.184Z,18.80
2017-10-27T05:00:14.690Z,18.90
2017-10-27T05:02:44.632Z,18.90
2017-10-27T05:05:15.334Z,18.90
2017-10-27T05:07:44.745Z,18.90
2017-10-27T05:10:13.782Z,18.90
2017-10-27T05:12:42.755Z,19.00
2017-10-27T05:15:11.805Z,18.90
2017-10-27T05:17:46.439Z,18.90
2017-10-27T05:20:21.477Z,18.90
2017-10-27T05:22:55.895Z,18.90
2017-10-27T05:25:24.683Z,18.90
2017-10-27T05:27:53.371Z,19.00
2017-10-27T05:30:23.015Z,18.90
2017-10-27T05:32:51.769Z,18.80
2017-10-27T05:35:20.455Z,18.80
2017-10-27T05:37:49.552Z,18.70
2017-10-27T05:40:18.440Z,18.80
2017-10-27T05:42:47.333Z,18.80
2017-10-27T05:45:16.226Z,18.70
2017-10-27T05:47:45.112Z,18.70
2017-10-27T05:50:13.799Z,18.70
2017-10-27T05:52:42.895Z,18.60
2017-10-27T05:55:11.792Z,18.70
2017-10-27T05:57:40.840Z,18.70
2017-10-27T06:00:09.575Z,18.70
2017-10-27T06:02:39.278Z,18.70
2017-10-27T06:05:07.966Z,18.70
2017-10-27T06:07:36.765Z,18.60
2017-10-27T06:10:05.659Z,18.60
2017-10-27T06:12:34.337Z,18.60
2017-10-27T06:15:03.124Z,18.60
2017-10-27T06:17:32.015Z,18.60
2017-10-27T06:20:00.700Z,18.50
2017-10-27T06:22:29.385Z,18.50
2017-10-27T06:24:58.288Z,18.50
2017-10-27T06:27:27.373Z,18.50
2017-10-27T06:29:56.055Z,18.60
2017-10-27T06:32:24.947Z,18.60
2017-10-27T06:34:53.643Z,18.70
2017-10-27T06:37:22.535Z,18.70
2017-10-27T06:39:51.417Z,18.70
2017-10-27T06:42:20.508Z,18.70
2017-10-27T06:44:49.406Z,18.80
2017-10-27T06:47:18.297Z,18.80
2017-10-27T06:49:46.981Z,18.90
2017-10-27T06:52:15.878Z,18.90
2017-10-27T06:54:44.768Z,18.90
2017-10-27T06:57:14.478Z,18.90
2017-10-27T06:59:43.570Z,18.90
2017-10-27T07:02:12.472Z,18.90
2017-10-27T07:04:41.349Z,19.10
2017-10-27T07:07:10.037Z,19.10
2017-10-27T07:09:38.931Z,19.20
2017-10-27T07:12:07.769Z,19.20
2017-10-27T07:14:37.541Z,19.30
2017-10-27T07:17:06.436Z,19.30
2017-10-27T07:19:35.222Z,19.40
2017-10-27T07:22:04.004Z,19.40
2017-10-27T07:24:33.096Z,19.40
2017-10-27T07:27:02.802Z,19.50
2017-10-27T07:29:31.596Z,19.40
2017-10-27T07:32:00.686Z,19.50
2017-10-27T07:34:30.403Z,19.70
2017-10-27T07:36:59.185Z,19.70
2017-10-27T07:39:27.976Z,19.70
2017-10-27T07:41:56.865Z,19.90
2017-10-27T07:44:25.760Z,19.90
2017-10-27T07:46:54.585Z,19.90
2017-10-27T07:49:23.540Z,19.90
2017-10-27T07:51:53.248Z,20.20
2017-10-27T07:54:22.139Z,20.20
2017-10-27T07:56:51.033Z,20.30
2017-10-27T07:59:19.922Z,20.40
2017-10-27T08:01:48.813Z,20.50
2017-10-27T08:04:17.705Z,20.60
2017-10-27T08:06:46.599Z,20.70
2017-10-27T08:09:15.488Z,20.70
2017-10-27T08:11:44.387Z,20.80
2017-10-27T08:14:14.088Z,20.90
2017-10-27T08:16:43.184Z,20.90
2017-10-27T08:19:12.078Z,21.10
2017-10-27T08:21:40.966Z,21.20
2017-10-27T08:24:09.861Z,21.30
2017-10-27T08:26:39.569Z,21.40
2017-10-27T08:29:09.299Z,21.50
2017-10-27T08:31:38.993Z,21.60
2017-10-27T08:34:08.290Z,21.60
2017-10-27T08:36:37.383Z,21.60
2017-10-27T08:39:06.280Z,21.60
2017-10-27T08:41:35.167Z,21.70
2017-10-27T08:44:04.059Z,21.70
2017-10-27T08:46:33.159Z,21.70
2017-10-27T08:49:02.053Z,21.70
2017-10-27T08:51:31.760Z,22.00
2017-10-27T08:54:00.639Z,21.90
2017-10-27T08:56:29.544Z,22.00
2017-10-27T08:58:58.428Z,22.00
2017-10-27T09:01:27.319Z,22.00
2017-10-27T09:03:56.210Z,22.00
2017-10-27T09:06:25.110Z,22.00
2017-10-27T09:08:54.094Z,22.00
2017-10-27T09:11:22.881Z,21.90
2017-10-27T09:13:51.773Z,21.70
2017-10-27T09:16:20.666Z,21.80
2017-10-27T09:18:49.830Z,21.80
2017-10-27T09:21:18.760Z,22.00
2017-10-27T09:23:47.541Z,22.00
2017-10-27T09:26:16.742Z,22.10
2017-10-27T09:28:45.567Z,22.00
2017-10-27T09:31:14.323Z,22.10
2017-10-27T09:33:43.311Z,22.20
2017-10-27T09:36:12.202Z,22.20
2017-10-27T09:38:41.149Z,22.30
2017-10-27T09:41:10.100Z,22.30
2017-10-27T09:43:39.967Z,22.40
2017-10-27T09:46:08.899Z,22.40
2017-10-27T09:48:37.996Z,22.40
2017-10-27T09:51:07.086Z,22.50
2017-10-27T09:53:35.975Z,22.60
2017-10-27T09:56:06.045Z,22.70
2017-10-27T09:58:35.009Z,22.70
2017-10-27T10:01:03.984Z,22.80
2017-10-27T10:03:32.872Z,22.80
2017-10-27T10:06:01.763Z,22.80
2017-10-27T10:08:30.655Z,22.80
2017-10-27T10:10:59.558Z,22.90
2017-10-27T10:13:28.644Z,22.90
2017-10-27T10:15:57.530Z,22.80
2017-10-27T10:18:26.394Z,22.90
2017-10-27T10:20:55.314Z,22.80
2017-10-27T10:23:24.208Z,22.90
2017-10-27T10:25:53.108Z,23.00
2017-10-27T10:28:23.023Z,23.10
2017-10-27T10:30:51.876Z,23.10
2017-10-27T10:33:21.015Z,23.20
2017-10-27T10:35:49.824Z,23.10
2017-10-27T10:38:18.861Z,23.00
2017-10-27T10:40:47.798Z,23.20
2017-10-27T10:43:16.780Z,23.30
2017-10-27T10:45:45.763Z,23.20
2017-10-27T10:48:14.658Z,23.10
2017-10-27T10:50:43.497Z,23.00
2017-10-27T10:53:13.311Z,23.40
2017-10-27T10:55:42.144Z,23.40
2017-10-27T10:58:11.139Z,23.40
2017-10-27T11:00:39.927Z,23.50
2017-10-27T11:03:08.817Z,23.50
2017-10-27T11:05:37.710Z,23.50
2017-10-27T11:08:06.602Z,23.60
2017-10-27T11:10:35.493Z,23.70
2017-10-27T11:13:05.899Z,23.60
2017-10-27T11:15:35.115Z,23.60
2017-10-27T11:18:04.008Z,23.70
2017-10-27T11:20:33.179Z,23.60
2017-10-27T11:23:01.994Z,23.60
2017-10-27T11:25:30.902Z,23.70
2017-10-27T11:28:00.300Z,23.80
2017-10-27T11:30:30.494Z,23.80
2017-10-27T11:32:59.869Z,23.80
2017-10-27T11:35:28.824Z,23.60
2017-10-27T11:37:57.922Z,23.40
2017-10-27T11:40:26.997Z,23.30
2017-10-27T11:42:56.894Z,23.30
2017-10-27T11:45:26.011Z,23.40
2017-10-27T11:47:55.542Z,23.50
2017-10-27T11:50:25.226Z,23.60
2017-10-27T11:52:54.597Z,23.50
2017-10-27T11:55:23.840Z,23.60
2017-10-27T11:57:53.543Z,23.70
2017-10-27T12:00:22.832Z,23.60
2017-10-27T12:02:52.546Z,23.70
2017-10-27T12:05:22.264Z,23.70
2017-10-27T12:07:51.146Z,23.80
2017-10-27T12:10:20.044Z,23.70
2017-10-27T12:12:48.940Z,22.50
2017-10-27T12:15:17.826Z,23.60
2017-10-27T12:17:46.713Z,23.70
2017-10-27T12:20:15.616Z,23.70
2017-10-27T12:22:45.247Z,23.70
2017-10-27T12:25:14.919Z,23.80
2017-10-27T12:27:44.936Z,23.80
2017-10-27T12:30:13.830Z,23.80
2017-10-27T12:32:43.548Z,23.60
2017-10-27T12:35:12.432Z,23.60
2017-10-27T12:37:41.482Z,21.80
2017-10-27T12:40:10.315Z,23.50
2017-10-27T12:42:39.417Z,23.40
2017-10-27T12:45:08.305Z,23.40
2017-10-27T12:47:38.114Z,23.40
2017-10-27T12:50:07.211Z,23.40
2017-10-27T12:52:36.001Z,23.40
2017-10-27T12:55:05.709Z,23.20
2017-10-27T12:57:34.600Z,23.20
2017-10-27T13:00:03.701Z,22.30
2017-10-27T13:02:33.406Z,23.20
2017-10-27T13:05:02.299Z,23.10
2017-10-27T13:07:31.217Z,23.10
2017-10-27T13:10:00.617Z,23.50
2017-10-27T13:12:29.484Z,23.50
2017-10-27T13:14:58.272Z,24.00
2017-10-27T13:17:27.161Z,24.20
2017-10-27T13:19:56.878Z,24.20
2017-10-27T13:22:25.767Z,24.20
2017-10-27T13:24:54.599Z,24.10
2017-10-27T13:27:23.543Z,24.60
2017-10-27T13:29:52.754Z,25.40
2017-10-27T13:32:21.531Z,25.50
2017-10-27T13:34:50.319Z,25.60
2017-10-27T13:37:19.320Z,25.50
2017-10-27T13:39:48.209Z,25.40
2017-10-27T13:42:17.095Z,25.30
2017-10-27T13:44:45.985Z,25.40
2017-10-27T13:47:14.880Z,25.40
2017-10-27T13:49:43.986Z,25.40
2017-10-27T13:52:13.685Z,25.00
2017-10-27T13:54:43.393Z,24.80
2017-10-27T13:57:12.287Z,24.80
2017-10-27T13:59:41.176Z,24.60
2017-10-27T14:02:10.271Z,24.30
2017-10-27T14:04:39.165Z,24.10
2017-10-27T14:07:08.001Z,23.70
2017-10-27T14:09:36.947Z,23.50
2017-10-27T14:12:05.843Z,23.30
2017-10-27T14:14:34.840Z,23.20
2017-10-27T14:17:03.720Z,23.20
2017-10-27T14:19:32.408Z,23.20
2017-10-27T14:22:01.303Z,23.00
2017-10-27T14:24:30.190Z,23.00
2017-10-27T14:26:59.021Z,23.70
2017-10-27T14:29:28.587Z,23.70
2017-10-27T14:31:57.420Z,23.70
2017-10-27T14:34:26.980Z,22.80
2017-10-27T14:36:55.875Z,22.70
2017-10-27T14:39:24.774Z,22.60
2017-10-27T14:41:53.653Z,22.50
2017-10-27T14:44:23.367Z,22.50
2017-10-27T14:46:52.258Z,22.50
2017-10-27T14:49:21.153Z,22.50
2017-10-27T14:51:49.836Z,22.50
2017-10-27T14:54:18.727Z,22.50
2017-10-27T14:56:47.415Z,22.50
2017-10-27T14:59:16.305Z,22.40
2017-10-27T15:01:45.194Z,22.40
2017-10-27T15:04:14.100Z,22.50
2017-10-27T15:06:42.976Z,22.40
2017-10-27T15:09:11.869Z,22.40
2017-10-27T15:11:40.758Z,22.40
2017-10-27T15:14:09.449Z,22.30
2017-10-27T15:16:38.336Z,22.20
2017-10-27T15:19:07.135Z,22.20
2017-10-27T15:21:36.201Z,22.20
2017-10-27T15:24:05.403Z,22.20
2017-10-27T15:26:35.135Z,22.00
2017-10-27T15:29:04.492Z,22.00
2017-10-27T15:31:33.626Z,21.80
2017-10-27T15:34:02.577Z,21.70
2017-10-27T15:36:31.542Z,21.80
2017-10-27T15:39:00.610Z,21.80
2017-10-27T15:41:29.496Z,21.80
2017-10-27T15:43:58.540Z,21.70
2017-10-27T15:46:28.470Z,21.70
2017-10-27T15:48:57.518Z,21.70
2017-10-27T15:51:26.258Z,21.70
2017-10-27T15:53:55.905Z,21.60
2017-10-27T15:56:25.110Z,21.60
2017-10-27T15:58:54.095Z,21.60
2017-10-27T16:01:22.987Z,21.60
2017-10-27T16:03:51.775Z,21.60
2017-10-27T16:06:20.455Z,21.50
2017-10-27T16:08:49.361Z,21.50
2017-10-27T16:11:18.039Z,21.50
2017-10-27T16:13:46.741Z,21.50
2017-10-27T16:16:15.617Z,21.50
2017-10-27T16:18:44.303Z,21.50
2017-10-27T16:21:13.188Z,21.40
2017-10-27T16:23:42.089Z,21.40
2017-10-27T16:26:10.971Z,21.50
2017-10-27T16:28:39.657Z,21.40
2017-10-27T16:31:08.342Z,21.30
2017-10-27T16:33:38.062Z,21.30
2017-10-27T16:36:07.045Z,21.30
2017-10-27T16:38:35.772Z,21.30
2017-10-27T16:41:04.724Z,21.30
2017-10-27T16:43:33.619Z,21.30
2017-10-27T16:46:02.511Z,21.30
2017-10-27T16:48:31.424Z,21.30
2017-10-27T16:51:00.291Z,21.30
2017-10-27T16:53:29.539Z,21.30
2017-10-27T16:55:58.590Z,21.30
2017-10-27T16:58:27.479Z,21.30
2017-10-27T17:00:57.330Z,21.30
2017-10-27T17:03:26.896Z,21.30
2017-10-27T17:05:55.583Z,21.20
2017-10-27T17:08:24.475Z,21.30
2017-10-27T17:10:53.372Z,21.30
2017-10-27T17:16:19.797Z,21.10
2017-10-27T17:18:49.529Z,21.20
2017-10-27T17:21:18.426Z,21.10
2017-10-27T17:23:47.298Z,21.10
2017-10-27T17:26:16.305Z,21.10
2017-10-27T17:28:45.511Z,21.00
2017-10-27T17:31:14.391Z,21.00
2017-10-27T17:33:43.291Z,21.10
2017-10-27T17:36:11.977Z,21.10
2017-10-27T17:38:40.863Z,21.10
2017-10-27T17:41:09.686Z,21.10
2017-10-27T17:43:39.261Z,21.10
2017-10-27T17:46:08.971Z,21.10
2017-10-27T17:48:38.072Z,21.10
2017-10-27T17:51:07.162Z,21.10
2017-10-27T17:53:36.050Z,21.10
2017-10-27T17:56:04.738Z,21.10
2017-10-27T17:58:33.632Z,21.10
2017-10-27T18:01:02.522Z,21.20
2017-10-27T18:03:31.414Z,21.20
2017-10-27T18:08:56.053Z,21.20
2017-10-27T18:11:25.400Z,21.20
2017-10-27T18:13:55.878Z,21.10
2017-10-27T18:16:27.570Z,21.10
2017-10-27T18:18:56.502Z,21.10
2017-10-27T18:21:25.399Z,21.10
2017-10-27T18:23:54.227Z,21.10
2017-10-27T18:26:23.128Z,21.00
2017-10-27T18:28:52.682Z,21.10
2017-10-27T18:31:21.569Z,21.00
2017-10-27T18:33:50.416Z,21.10
2017-10-27T18:36:19.984Z,21.00
2017-10-27T18:38:48.807Z,21.00
2017-10-27T18:41:19.213Z,21.00
2017-10-27T18:43:47.876Z,21.00
2017-10-27T18:46:16.761Z,21.00
2017-10-27T18:48:45.466Z,21.10
2017-10-27T18:51:14.343Z,21.00
2017-10-27T18:53:43.230Z,21.00
2017-10-27T18:56:12.734Z,21.00
2017-10-27T18:58:41.425Z,21.00
2017-10-27T19:01:10.319Z,21.10
2017-10-27T19:03:39.003Z,21.10
2017-10-27T19:06:07.827Z,21.10
2017-10-27T19:08:36.515Z,21.10
2017-10-27T19:11:05.271Z,21.10
2017-10-27T19:13:34.153Z,21.10
2017-10-27T19:16:03.052Z,21.10
2017-10-27T19:18:31.736Z,21.10
2017-10-27T19:21:00.427Z,21.00
2017-10-27T19:23:29.307Z,21.00
2017-10-27T19:25:57.992Z,21.00
2017-10-27T19:28:26.680Z,21.00
2017-10-27T19:30:55.569Z,21.00
2017-10-27T19:33:24.515Z,21.00
2017-10-27T19:35:53.253Z,21.00
2017-10-27T19:38:22.246Z,21.00
2017-10-27T19:40:53.498Z,20.90
2017-10-27T19:43:22.532Z,20.90
2017-10-27T19:45:52.296Z,20.90
2017-10-27T19:48:21.185Z,20.90
2017-10-27T19:50:50.076Z,20.90
2017-10-27T19:53:18.772Z,20.90
2017-10-27T19:55:47.449Z,20.80
2017-10-27T19:58:16.340Z,20.80
2017-10-27T20:00:45.244Z,20.80
2017-10-27T20:03:14.133Z,20.80
2017-10-27T20:05:43.016Z,20.70
2017-10-27T20:08:11.700Z,20.70
2017-10-27T20:10:40.391Z,20.70
2017-10-27T20:13:09.281Z,20.70
2017-10-27T20:15:38.185Z,20.70
2017-10-27T20:18:06.854Z,20.60
2017-10-27T20:20:35.543Z,20.60
2017-10-27T20:23:04.227Z,20.70
2017-10-27T20:25:32.913Z,20.60
2017-10-27T20:28:01.702Z,20.70
2017-10-27T20:30:30.505Z,20.60
2017-10-27T20:32:59.144Z,20.60
2017-10-27T20:35:27.865Z,20.60
2017-10-27T20:37:56.548Z,20.60
2017-10-27T20:40:25.239Z,20.50
2017-10-27T20:42:54.127Z,20.50
2017-10-27T20:45:24.023Z,20.40
2017-10-27T20:47:52.943Z,20.50
2017-10-27T20:50:21.824Z,20.50
2017-10-27T20:52:50.786Z,20.50
2017-10-27T20:55:19.607Z,20.50
2017-10-27T20:57:48.496Z,20.50
2017-10-27T21:00:17.200Z,20.50
2017-10-27T21:02:46.081Z,20.50
2017-10-27T21:05:14.974Z,20.50
2017-10-27T21:07:44.062Z,20.40
2017-10-27T21:10:12.697Z,20.50
2017-10-27T21:12:42.253Z,20.40
2017-10-27T21:15:10.938Z,20.40
2017-10-27T21:17:39.727Z,20.40
2017-10-27T21:20:08.413Z,20.40
2017-10-27T21:22:37.308Z,20.40
2017-10-27T21:25:05.991Z,20.40
2017-10-27T21:27:34.881Z,20.40
2017-10-27T21:30:03.673Z,20.50
2017-10-27T21:32:32.299Z,20.50
2017-10-27T21:36:50.563Z,20.70
2017-10-27T21:39:19.308Z,20.60
2017-10-27T21:41:48.089Z,20.50
2017-10-27T21:44:16.875Z,20.40
2017-10-27T21:46:45.664Z,20.50
2017-10-27T21:49:14.464Z,20.40
2017-10-27T21:51:43.241Z,20.40
2017-10-27T21:54:12.038Z,20.40
2017-10-27T21:56:40.716Z,20.40
2017-10-27T21:59:09.612Z,20.40
2017-10-27T22:01:38.395Z,20.40
2017-10-27T22:04:07.085Z,20.30
2017-10-27T22:06:36.080Z,20.30
2017-10-27T22:09:04.970Z,20.30
2017-10-27T22:11:34.636Z,20.30
2017-10-27T22:14:03.524Z,20.30
2017-10-27T22:16:32.313Z,20.30
2017-10-27T22:19:01.043Z,20.30
2017-10-27T22:21:29.934Z,20.30
2017-10-27T22:23:58.722Z,20.30
2017-10-27T22:26:27.617Z,20.30
2017-10-27T22:28:56.450Z,20.30
2017-10-27T22:31:26.011Z,20.30
2017-10-27T22:33:54.701Z,20.30
2017-10-27T22:36:23.384Z,20.30
2017-10-27T22:38:53.095Z,20.40
2017-10-27T22:41:21.779Z,20.40
2017-10-27T22:43:50.467Z,20.40
2017-10-27T22:46:19.105Z,20.40
2017-10-27T22:48:47.839Z,20.40
2017-10-27T22:51:16.524Z,20.40
2017-10-27T22:53:45.218Z,20.40
2017-10-27T22:56:13.896Z,20.40
2017-10-27T22:58:42.592Z,20.40
2017-10-27T23:01:11.278Z,20.50
2017-10-27T23:03:39.955Z,20.40
2017-10-27T23:06:08.847Z,20.40
2017-10-27T23:08:37.533Z,20.40
2017-10-27T23:11:06.368Z,20.40
2017-10-27T23:13:36.031Z,20.40
2017-10-27T23:16:04.719Z,20.30
2017-10-27T23:18:33.407Z,20.30
2017-10-27T23:21:02.094Z,20.30
2017-10-27T23:23:30.983Z,20.30
2017-10-27T23:25:59.669Z,20.30
2017-10-27T23:28:28.355Z,20.40
2017-10-27T23:30:57.043Z,20.40
2017-10-27T23:33:25.675Z,20.30
2017-10-27T23:35:54.416Z,20.30
2017-10-27T23:38:23.106Z,20.40
2017-10-27T23:40:51.800Z,20.30
2017-10-27T23:43:20.679Z,20.30
2017-10-27T23:45:49.366Z,20.30
2017-10-27T23:48:18.057Z,20.30
2017-10-27T23:50:46.947Z,20.20
2017-10-27T23:53:15.625Z,20.20
2017-10-27T23:55:44.769Z,20.20
2017-10-27T23:58:13.623Z,20.10
